Time;durP1;ratioP1;P1;durP2;ratioP2;P2;SDS_P1;SDS_P2;PMS_P1;PMS_P2;Temp;Humidity;BMP_temperature;BMP_pressure;BME280_temperature;BME280_humidity;BME280_pressure;Samples;Min_cycle;Max_cycle;Signal;HPM_P1;HPM_P2
2023/08/25 00:01:01;;;;;;;6.70;6.13;;;26.60;86.90;;;;;;5133176;27;20203;-70
2023/08/25 00:03:28;;;;;;;7.77;7.00;;;26.60;87.00;;;;;;5133928;27;20206;-71
2023/08/25 00:05:55;;;;;;;7.47;6.40;;;26.60;86.90;;;;;;5133599;27;20211;-71
2023/08/25 00:08:22;;;;;;;6.90;6.20;;;26.60;86.90;;;;;;5133664;27;20233;-70
2023/08/25 00:10:50;;;;;;;7.13;6.43;;;26.60;87.00;;;;;;5126788;27;20230;-70
2023/08/25 00:13:18;;;;;;;6.43;5.83;;;26.50;87.50;;;;;;5113072;28;20203;-69
2023/08/25 00:15:45;;;;;;;6.30;5.80;;;26.50;86.80;;;;;;5131121;27;20212;-70
2023/08/25 00:18:12;;;;;;;6.73;6.13;;;26.50;86.70;;;;;;5133445;27;20679;-70
2023/08/25 00:20:39;;;;;;;6.63;6.03;;;26.50;86.70;;;;;;5133245;27;20209;-69
2023/08/25 00:23:06;;;;;;;7.63;6.93;;;26.50;86.80;;;;;;5133207;27;20254;-71
2023/08/25 00:25:32;;;;;;;7.47;6.43;;;26.50;86.90;;;;;;5132950;27;20210;-71
2023/08/25 00:27:59;;;;;;;6.90;6.30;;;26.40;86.90;;;;;;5133207;27;20225;-70
2023/08/25 00:30:28;;;;;;;8.10;7.03;;;26.40;87.10;;;;;;5129701;27;20230;-71
2023/08/25 00:32:56;;;;;;;6.47;5.87;;;26.40;87.30;;;;;;5113825;27;20219;-70
2023/08/25 00:35:24;;;;;;;6.60;6.00;;;26.30;87.00;;;;;;5112203;28;20214;-70
2023/08/25 00:37:50;;;;;;;8.37;6.37;;;26.30;86.90;;;;;;5112089;28;20184;-70
2023/08/25 00:40:17;;;;;;;6.73;6.13;;;26.30;86.90;;;;;;5112018;27;20226;-70
2023/08/25 00:42:44;;;;;;;6.77;6.10;;;26.20;86.90;;;;;;5112246;28;20331;-71
2023/08/25 00:45:11;;;;;;;5.73;5.23;;;26.20;87.00;;;;;;5112097;28;20204;-70
2023/08/25 00:47:40;;;;;;;6.53;5.93;;;26.20;87.10;;;;;;5112109;28;20224;-70
2023/08/25 00:50:09;;;;;;;6.07;5.50;;;26.20;87.20;;;;;;5110943;28;20199;-69
2023/08/25 00:52:37;;;;;;;5.97;5.43;;;26.10;87.10;;;;;;5112315;28;20200;-71
2023/08/25 00:55:06;;;;;;;5.93;5.33;;;26.20;87.00;;;;;;5110298;28;20241;-70
2023/08/25 00:57:32;;;;;;;7.30;5.50;;;26.10;86.70;;;;;;5111807;28;20262;-70
2023/08/25 00:59:59;;;;;;;5.53;4.90;;;26.10;86.70;;;;;;5112766;27;20211;-71
2023/08/25 01:02:26;;;;;;;6.57;5.33;;;26.10;86.60;;;;;;5121775;27;20306;-69
2023/08/25 01:04:56;;;;;;;5.63;5.20;;;26.10;86.50;;;;;;5132311;27;20202;-71
2023/08/25 01:07:22;;;;;;;6.43;5.47;;;26.10;86.40;;;;;;5126323;27;20223;-69
2023/08/25 01:09:50;;;;;;;6.53;5.80;;;26.00;86.20;;;;;;5111405;28;20192;-69
2023/08/25 01:12:28;;;;;;;6.40;5.77;;;25.90;86.40;;;;;;5111814;28;20200;-71
2023/08/25 01:15:00;;;;;;;5.97;5.47;;;25.80;86.80;;;;;;5111599;28;20314;-70
2023/08/25 01:17:31;;;;;;;5.87;5.23;;;25.70;87.10;;;;;;5123455;27;20195;-70
2023/08/25 01:20:06;;;;;;;8.93;5.13;;;25.70;87.40;;;;;;5118286;27;20373;-70
2023/08/25 01:22:39;;;;;;;5.93;5.33;;;25.60;87.50;;;;;;5111702;28;20222;-70
2023/08/25 01:25:25;;;;;;;8.30;5.57;;;25.60;87.40;;;;;;5111456;28;20558;-69
2023/08/25 01:27:53;;;;;;;6.10;5.50;;;25.60;87.80;;;;;;5111545;28;20208;-70
2023/08/25 01:30:22;;;;;;;6.70;4.87;;;25.70;87.40;;;;;;5132305;27;20199;-71
2023/08/25 01:32:50;;;;;;;9.43;5.50;;;25.70;87.20;;;;;;5132181;27;20248;-70
2023/08/25 01:35:19;;;;;;;5.90;5.40;;;25.70;87.10;;;;;;5132414;27;20613;-71
2023/08/25 01:37:55;;;;;;;5.90;5.30;;;25.70;87.10;;;;;;5116028;27;20195;-70
2023/08/25 01:40:32;;;;;;;5.30;4.80;;;25.60;87.50;;;;;;5111304;28;20249;-71
2023/08/25 01:43:00;;;;;;;5.07;4.67;;;25.60;87.60;;;;;;5111217;28;20227;-71
2023/08/25 01:45:27;;;;;;;5.53;4.73;;;25.60;87.30;;;;;;5111600;28;20261;-70
2023/08/25 01:47:57;;;;;;;5.17;4.67;;;25.60;87.20;;;;;;5061537;28;20216;-71
2023/08/25 01:50:24;;;;;;;7.53;4.77;;;25.70;87.10;;;;;;5090757;28;20206;-70
2023/08/25 01:52:51;;;;;;;5.20;4.70;;;25.70;86.80;;;;;;5090674;28;20227;-70
2023/08/25 01:55:18;;;;;;;5.10;4.53;;;25.70;86.90;;;;;;5091031;28;20208;-70
2023/08/25 01:57:46;;;;;;;5.87;4.90;;;25.70;86.90;;;;;;5106812;28;20224;-70
2023/08/25 02:00:14;;;;;;;5.30;4.80;;;25.70;86.90;;;;;;5111084;28;20655;-70
2023/08/25 02:02:41;;;;;;;5.87;4.70;;;25.70;86.80;;;;;;5111579;28;20222;-70
2023/08/25 02:05:08;;;;;;;5.17;4.67;;;25.70;87.60;;;;;;5111160;28;20228;-70
2023/08/25 02:07:35;;;;;;;4.70;4.30;;;25.60;86.80;;;;;;5093893;28;20238;-71
2023/08/25 02:10:02;;;;;;;4.97;4.00;;;25.70;86.80;;;;;;5131609;27;20219;-70
2023/08/25 02:12:29;;;;;;;5.07;4.43;;;25.70;86.60;;;;;;5131635;27;20186;-70
2023/08/25 02:14:57;;;;;;;4.93;4.53;;;25.70;86.60;;;;;;5132844;27;20210;-70
2023/08/25 02:17:24;;;;;;;4.73;4.37;;;25.60;86.50;;;;;;5131595;27;20318;-70
2023/08/25 02:19:51;;;;;;;5.07;4.67;;;25.70;86.50;;;;;;5138270;27;20198;-70
2023/08/25 02:22:18;;;;;;;4.00;3.67;;;25.70;86.40;;;;;;5144529;27;20362;-70
2023/08/25 02:24:45;;;;;;;5.33;4.00;;;25.70;86.30;;;;;;5137249;27;20206;-70
2023/08/25 02:27:12;;;;;;;4.30;3.90;;;25.70;86.90;;;;;;5134644;27;20569;-70
2023/08/25 02:29:38;;;;;;;4.10;3.80;;;25.70;85.90;;;;;;5135325;27;20237;-70
2023/08/25 02:32:07;;;;;;;4.33;3.93;;;25.60;85.70;;;;;;5135412;27;20223;-70
2023/08/25 02:34:35;;;;;;;4.67;4.00;;;25.60;85.70;;;;;;5135310;27;20206;-70
2023/08/25 02:37:02;;;;;;;6.97;4.60;;;25.50;85.70;;;;;;5099830;28;20227;-70
2023/08/25 02:39:29;;;;;;;4.23;3.67;;;25.40;85.80;;;;;;5094164;28;20208;-70
2023/08/25 02:41:55;;;;;;;4.57;4.17;;;25.30;86.20;;;;;;5058421;28;20319;-70
2023/08/25 02:44:22;;;;;;;3.87;3.37;;;25.20;86.30;;;;;;5110325;28;20231;-69
2023/08/25 02:46:50;;;;;;;4.67;3.60;;;25.20;86.30;;;;;;5124993;27;20199;-71
2023/08/25 02:49:18;;;;;;;4.53;4.03;;;25.20;86.40;;;;;;5135159;27;20287;-69
2023/08/25 02:51:44;;;;;;;3.90;3.50;;;25.20;86.40;;;;;;5134627;27;20223;-71
2023/08/25 02:54:11;;;;;;;6.17;3.70;;;25.20;86.30;;;;;;5135088;27;20199;-71
2023/08/25 02:56:38;;;;;;;4.47;3.77;;;25.20;86.20;;;;;;5135149;27;20225;-71
2023/08/25 02:59:05;;;;;;;5.27;3.73;;;25.20;86.30;;;;;;5123262;27;20203;-70
2023/08/25 03:01:33;;;;;;;5.63;4.30;;;25.20;86.40;;;;;;5113806;27;20231;-70
2023/08/25 03:04:00;;;;;;;5.43;3.77;;;25.20;86.30;;;;;;5114495;28;20210;-70
2023/08/25 03:06:28;;;;;;;3.43;3.20;;;25.30;86.30;;;;;;5125515;27;20199;-69
2023/08/25 03:08:54;;;;;;;5.00;3.70;;;25.30;86.40;;;;;;5133913;27;20683;-71
2023/08/25 03:11:21;;;;;;;3.57;3.20;;;25.30;86.30;;;;;;5131934;27;20195;-71
2023/08/25 03:13:48;;;;;;;4.50;3.37;;;25.30;86.30;;;;;;5114152;28;20227;-70
2023/08/25 03:16:15;;;;;;;5.03;3.87;;;25.30;86.30;;;;;;5113882;28;20491;-70
2023/08/25 03:18:42;;;;;;;4.70;3.20;;;25.30;86.30;;;;;;5114104;28;20196;-70
2023/08/25 03:21:08;;;;;;;6.10;3.90;;;25.30;86.30;;;;;;5113595;27;20259;-70
2023/08/25 03:23:37;;;;;;;3.83;3.53;;;25.30;86.30;;;;;;5113586;28;20664;-71
2023/08/25 03:26:04;;;;;;;4.10;3.80;;;25.30;86.30;;;;;;5113989;28;20210;-71
2023/08/25 03:28:31;;;;;;;3.77;3.43;;;25.30;86.50;;;;;;5114102;28;20668;-71
2023/08/25 03:30:58;;;;;;;5.93;4.00;;;25.30;86.40;;;;;;5113762;28;20214;-71
2023/08/25 03:33:24;;;;;;;4.10;3.47;;;25.30;86.40;;;;;;5132284;27;20218;-70
2023/08/25 03:35:51;;;;;;;6.67;3.63;;;25.30;86.40;;;;;;5133701;27;20681;-71
2023/08/25 03:38:18;;;;;;;3.93;3.63;;;25.30;86.30;;;;;;5133685;27;20221;-70
2023/08/25 03:40:46;;;;;;;5.67;3.60;;;25.30;86.30;;;;;;5134368;27;20206;-71
2023/08/25 03:43:13;;;;;;;4.30;3.90;;;25.20;86.20;;;;;;5126638;27;20219;-70
2023/08/25 03:45:40;;;;;;;3.83;3.53;;;25.20;86.10;;;;;;5113084;28;20235;-70
2023/08/25 03:48:07;;;;;;;4.03;3.70;;;25.20;86.00;;;;;;5113571;28;20211;-70
2023/08/25 03:50:33;;;;;;;3.70;3.40;;;25.10;85.80;;;;;;5113998;28;20207;-70
2023/08/25 03:53:00;;;;;;;4.50;3.73;;;25.10;85.90;;;;;;5113407;28;20211;-70
2023/08/25 03:55:27;;;;;;;4.60;3.57;;;25.10;86.00;;;;;;5113453;28;20206;-70
2023/08/25 03:57:56;;;;;;;3.97;3.67;;;25.00;85.90;;;;;;5113644;28;20227;-71
2023/08/25 04:00:22;;;;;;;5.07;3.50;;;25.00;86.00;;;;;;5114362;28;20217;-70
2023/08/25 04:02:49;;;;;;;4.67;3.47;;;25.00;86.70;;;;;;5113939;28;20226;-70
2023/08/25 04:05:16;;;;;;;4.13;3.73;;;25.00;86.20;;;;;;5112727;28;20227;-70
2023/08/25 04:07:43;;;;;;;4.17;3.70;;;25.00;86.30;;;;;;5112729;28;20736;-70
2023/08/25 04:10:10;;;;;;;7.77;4.10;;;24.90;86.20;;;;;;5113222;28;20242;-71
2023/08/25 04:12:37;;;;;;;3.83;3.40;;;24.90;86.40;;;;;;5113132;27;20194;-70
2023/08/25 04:15:06;;;;;;;5.73;3.90;;;24.90;86.40;;;;;;5112995;28;20212;-71
2023/08/25 04:17:34;;;;;;;5.60;3.33;;;24.90;86.40;;;;;;5112810;28;20238;-71
2023/08/25 04:20:02;;;;;;;4.13;3.73;;;24.90;86.40;;;;;;5112913;28;20686;-71
2023/08/25 04:22:28;;;;;;;4.03;3.70;;;24.90;86.20;;;;;;5113746;27;20215;-71
2023/08/25 04:24:55;;;;;;;3.73;3.43;;;24.90;86.00;;;;;;5112673;28;20208;-70
2023/08/25 04:27:22;;;;;;;4.10;3.67;;;24.90;85.90;;;;;;5112478;28;20208;-70
2023/08/25 04:29:52;;;;;;;6.60;4.10;;;24.90;86.00;;;;;;5112883;28;20247;-70
2023/08/25 04:32:20;;;;;;;4.00;3.60;;;24.90;86.00;;;;;;5120508;27;20191;-70
2023/08/25 04:34:47;;;;;;;5.67;4.23;;;24.80;86.00;;;;;;5132912;27;20203;-70
2023/08/25 04:37:14;;;;;;;4.77;3.40;;;24.80;86.20;;;;;;5132753;27;20666;-71
2023/08/25 04:39:41;;;;;;;4.07;3.77;;;24.80;86.20;;;;;;5133211;27;20215;-71
2023/08/25 04:42:08;;;;;;;5.93;3.33;;;24.80;86.30;;;;;;5126747;27;20219;-71
2023/08/25 04:44:35;;;;;;;5.93;3.60;;;24.80;86.50;;;;;;5111919;28;20227;-71
2023/08/25 04:47:02;;;;;;;5.37;4.23;;;24.90;86.70;;;;;;5111766;28;20210;-71
2023/08/25 04:49:30;;;;;;;8.70;4.07;;;24.80;86.70;;;;;;5111417;28;20318;-70
2023/08/25 04:51:58;;;;;;;6.97;4.57;;;24.80;86.80;;;;;;5116499;27;20201;-70
2023/08/25 04:54:25;;;;;;;6.77;4.17;;;24.80;86.80;;;;;;5132264;27;20721;-70
2023/08/25 04:56:52;;;;;;;6.97;4.60;;;24.90;86.90;;;;;;5132759;27;20187;-71
2023/08/25 04:59:19;;;;;;;7.03;4.90;;;24.90;87.00;;;;;;5132631;27;20207;-71
2023/08/25 05:01:46;;;;;;;4.93;3.93;;;24.90;87.00;;;;;;5129399;27;20233;-71
2023/08/25 05:04:12;;;;;;;6.43;4.03;;;24.90;87.00;;;;;;5112445;28;20210;-70
2023/08/25 05:06:40;;;;;;;7.10;4.80;;;25.00;87.10;;;;;;5111608;28;20216;-70
2023/08/25 05:09:07;;;;;;;7.43;4.97;;;25.00;87.10;;;;;;5111993;28;20212;-70
2023/08/25 05:11:34;;;;;;;7.10;4.33;;;25.10;87.40;;;;;;5128138;27;20663;-71
2023/08/25 05:14:01;;;;;;;12.27;5.83;;;25.10;87.40;;;;;;5112510;28;20748;-72
2023/08/25 05:16:28;;;;;;;8.00;4.53;;;25.10;87.20;;;;;;5111845;28;20203;-70
2023/08/25 05:18:55;;;;;;;7.67;3.90;;;25.20;87.50;;;;;;5112527;28;20790;-70
2023/08/25 05:21:22;;;;;;;4.77;4.00;;;25.20;87.50;;;;;;5102951;28;20195;-71
2023/08/25 05:23:53;;;;;;;5.00;4.40;;;25.20;87.70;;;;;;5115051;27;20210;-71
2023/08/25 05:26:20;;;;;;;4.13;3.73;;;25.20;87.80;;;;;;5130459;27;20303;-69
2023/08/25 05:28:47;;;;;;;3.97;3.60;;;25.20;87.80;;;;;;5116256;27;20338;-70
2023/08/25 05:31:13;;;;;;;6.00;4.60;;;25.20;88.10;;;;;;5122231;27;20238;-71
2023/08/25 05:33:40;;;;;;;5.50;3.93;;;25.20;88.30;;;;;;5112712;28;20203;-70
2023/08/25 05:36:07;;;;;;;4.20;3.77;;;25.20;88.20;;;;;;5111366;28;20673;-70
2023/08/25 05:38:34;;;;;;;4.80;3.60;;;25.20;87.90;;;;;;5111623;28;20195;-71
2023/08/25 05:41:02;;;;;;;4.27;3.87;;;25.20;87.70;;;;;;5115913;27;20218;-70
2023/08/25 05:43:29;;;;;;;5.87;4.07;;;25.30;88.20;;;;;;5112005;27;20229;-70
2023/08/25 05:45:56;;;;;;;4.30;3.90;;;25.30;88.30;;;;;;5111041;28;20208;-71
2023/08/25 05:48:22;;;;;;;7.10;4.73;;;25.30;88.70;;;;;;5111567;28;20210;-70
2023/08/25 05:50:49;;;;;;;5.17;4.73;;;25.30;89.00;;;;;;5115718;28;20222;-71
2023/08/25 05:53:16;;;;;;;6.53;4.53;;;25.20;89.50;;;;;;5112199;28;20204;-70
2023/08/25 05:55:43;;;;;;;6.33;4.40;;;25.10;89.90;;;;;;5112204;28;20338;-71
2023/08/25 05:58:11;;;;;;;7.17;5.00;;;24.90;90.40;;;;;;5112439;28;20288;-71
2023/08/25 06:00:39;;;;;;;7.07;4.73;;;24.80;90.80;;;;;;5114737;28;20299;-69
2023/08/25 06:03:07;;;;;;;8.00;5.23;;;24.80;91.00;;;;;;5116187;27;20659;-69
2023/08/25 06:05:35;;;;;;;6.27;4.90;;;24.70;91.20;;;;;;5116286;28;20256;-70
2023/08/25 06:08:01;;;;;;;6.53;5.57;;;24.70;91.40;;;;;;5117393;27;20239;-71
2023/08/25 06:10:28;;;;;;;7.40;5.73;;;24.60;91.50;;;;;;5117658;27;20212;-71
2023/08/25 06:12:55;;;;;;;10.47;5.27;;;24.60;91.70;;;;;;5127854;27;20222;-70
2023/08/25 06:15:23;;;;;;;7.23;5.17;;;24.60;91.70;;;;;;5126851;27;20316;-70
2023/08/25 06:17:50;;;;;;;7.33;5.37;;;24.60;91.80;;;;;;5115771;28;20226;-70
2023/08/25 06:20:17;;;;;;;6.37;5.40;;;24.70;91.60;;;;;;5117761;27;20297;-70
2023/08/25 06:22:44;;;;;;;5.83;5.00;;;24.70;91.70;;;;;;5120884;27;20227;-70
2023/08/25 06:25:11;;;;;;;8.13;5.20;;;24.50;91.90;;;;;;5117665;27;20192;-69
2023/08/25 06:27:39;;;;;;;7.30;5.20;;;24.50;92.10;;;;;;5115897;28;20593;-70
2023/08/25 06:30:07;;;;;;;6.73;5.23;;;24.40;92.10;;;;;;5121826;27;20314;-70
2023/08/25 06:32:35;;;;;;;5.50;5.00;;;24.50;92.00;;;;;;5121984;28;20218;-70
2023/08/25 06:35:02;;;;;;;7.47;4.97;;;24.50;92.10;;;;;;5117998;28;20695;-69
2023/08/25 06:37:29;;;;;;;6.10;4.87;;;24.50;92.10;;;;;;5115966;28;20649;-69
2023/08/25 06:39:56;;;;;;;7.47;5.07;;;24.50;92.20;;;;;;5115781;28;20342;-70
2023/08/25 06:42:22;;;;;;;7.07;4.63;;;24.50;92.10;;;;;;5116359;27;20290;-71
2023/08/25 06:44:49;;;;;;;6.50;4.40;;;24.60;92.00;;;;;;5115702;28;20198;-71
2023/08/25 06:47:16;;;;;;;6.93;4.57;;;24.50;92.50;;;;;;5115148;28;20209;-70
2023/08/25 06:49:44;;;;;;;4.87;3.90;;;24.50;92.10;;;;;;5118267;27;20215;-69
2023/08/25 06:52:11;;;;;;;5.97;3.97;;;24.40;92.00;;;;;;5136351;27;20202;-70
2023/08/25 06:54:38;;;;;;;5.23;4.73;;;24.30;92.20;;;;;;5135854;27;20213;-70
2023/08/25 06:57:05;;;;;;;5.37;3.90;;;24.30;92.30;;;;;;5135508;27;20238;-71
2023/08/25 06:59:31;;;;;;;7.23;4.13;;;24.20;92.50;;;;;;5134196;27;20191;-70
2023/08/25 07:01:58;;;;;;;5.07;3.93;;;24.10;92.70;;;;;;5116619;27;20234;-70
2023/08/25 07:04:25;;;;;;;7.17;4.30;;;24.10;92.80;;;;;;5115310;28;20549;-70
2023/08/25 07:06:54;;;;;;;5.53;3.90;;;24.10;92.80;;;;;;5116219;27;20211;-70
2023/08/25 07:09:22;;;;;;;5.60;4.30;;;24.30;92.80;;;;;;5115578;28;20266;-69
2023/08/25 07:11:51;;;;;;;4.07;3.67;;;24.30;92.60;;;;;;5116714;27;20208;-69
2023/08/25 07:14:18;;;;;;;5.10;3.90;;;24.30;92.70;;;;;;5139722;27;20321;-70
2023/08/25 07:16:45;;;;;;;5.97;3.83;;;24.30;92.80;;;;;;5137779;27;20221;-71
2023/08/25 07:19:12;;;;;;;4.63;3.50;;;24.30;92.80;;;;;;5129651;27;20212;-70
2023/08/25 07:21:39;;;;;;;4.17;3.70;;;24.40;92.60;;;;;;5117330;28;20229;-70
2023/08/25 07:24:08;;;;;;;3.90;3.50;;;24.40;92.50;;;;;;5117013;28;20208;-71
2023/08/25 07:26:35;;;;;;;4.20;3.33;;;24.40;92.30;;;;;;5115659;28;20255;-70
2023/08/25 07:29:02;;;;;;;3.90;3.23;;;24.40;92.10;;;;;;5119158;28;20218;-70
2023/08/25 07:31:29;;;;;;;4.03;3.50;;;24.40;92.30;;;;;;5117029;28;20239;-69
2023/08/25 07:33:57;;;;;;;5.70;3.50;;;24.40;92.30;;;;;;5116586;27;20203;-70
2023/08/25 07:36:25;;;;;;;4.30;3.20;;;24.40;92.20;;;;;;5115659;28;20224;-70
2023/08/25 07:38:52;;;;;;;3.30;3.00;;;24.40;92.00;;;;;;5114513;28;20214;-70
2023/08/25 07:41:21;;;;;;;4.77;2.60;;;24.40;91.80;;;;;;5114600;28;20196;-69
2023/08/25 07:43:48;;;;;;;2.93;2.57;;;24.40;91.70;;;;;;5114217;28;20235;-70
2023/08/25 07:46:15;;;;;;;5.03;2.63;;;24.50;91.70;;;;;;5113961;28;20659;-70
2023/08/25 07:48:42;;;;;;;3.33;2.43;;;24.50;91.50;;;;;;5114555;27;20238;-70
2023/08/25 07:51:09;;;;;;;2.93;2.70;;;24.50;91.80;;;;;;5113958;28;20739;-70
2023/08/25 07:53:36;;;;;;;3.13;2.10;;;24.60;91.30;;;;;;5114221;28;20306;-70
2023/08/25 07:56:03;;;;;;;4.27;2.23;;;24.60;91.00;;;;;;5113916;28;20209;-70
2023/08/25 07:58:31;;;;;;;2.83;2.23;;;24.60;90.90;;;;;;5116398;28;20203;-69
2023/08/25 08:00:58;;;;;;;2.03;1.90;;;24.60;90.70;;;;;;5115732;28;20238;-69
2023/08/25 08:03:25;;;;;;;3.37;2.33;;;24.60;90.30;;;;;;5117287;28;20199;-70
2023/08/25 08:05:52;;;;;;;2.50;2.30;;;24.60;90.70;;;;;;5116231;28;20208;-71
2023/08/25 08:08:19;;;;;;;2.63;2.43;;;24.60;90.60;;;;;;5116187;28;20245;-70
2023/08/25 08:10:46;;;;;;;3.93;2.30;;;24.50;90.60;;;;;;5115323;28;20268;-70
2023/08/25 08:13:13;;;;;;;3.13;2.20;;;24.50;90.60;;;;;;5113457;28;20266;-70
2023/08/25 08:15:41;;;;;;;2.80;2.27;;;24.50;90.90;;;;;;5113785;27;20225;-70
2023/08/25 08:18:08;;;;;;;4.60;2.13;;;24.50;90.80;;;;;;5116609;28;20235;-70
2023/08/25 08:20:35;;;;;;;2.70;2.40;;;24.60;90.80;;;;;;5116016;28;20229;-70
2023/08/25 08:23:02;;;;;;;2.80;2.30;;;24.50;90.80;;;;;;5114943;28;20266;-69
2023/08/25 08:25:30;;;;;;;3.37;2.37;;;24.50;90.80;;;;;;5114242;28;20268;-70
2023/08/25 08:27:58;;;;;;;4.27;2.40;;;24.50;90.90;;;;;;5113525;28;20199;-70
2023/08/25 08:30:25;;;;;;;2.97;2.33;;;24.50;91.00;;;;;;5113289;28;20262;-70
2023/08/25 08:32:53;;;;;;;2.97;2.60;;;24.60;90.90;;;;;;5114260;28;20203;-70
2023/08/25 08:35:20;;;;;;;2.57;2.37;;;24.80;90.90;;;;;;5113913;28;20284;-69
2023/08/25 08:37:47;;;;;;;4.23;2.50;;;24.90;90.60;;;;;;5114088;28;20183;-70
2023/08/25 08:40:15;;;;;;;2.60;2.40;;;25.00;90.30;;;;;;5113321;27;20200;-70
2023/08/25 08:42:43;;;;;;;2.87;2.10;;;25.10;90.20;;;;;;5112649;28;20786;-70
2023/08/25 08:45:12;;;;;;;3.97;2.30;;;25.20;90.40;;;;;;5113187;28;20719;-70
2023/08/25 08:47:39;;;;;;;3.80;2.40;;;25.30;90.70;;;;;;5113066;28;20354;-70
2023/08/25 08:50:09;;;;;;;2.50;2.30;;;25.40;90.80;;;;;;5113072;28;20226;-70
2023/08/25 08:52:36;;;;;;;3.40;2.67;;;25.40;90.80;;;;;;5112774;28;20233;-70
2023/08/25 08:55:05;;;;;;;2.70;2.50;;;25.50;90.90;;;;;;5113361;28;20196;-70
2023/08/25 08:57:32;;;;;;;3.63;2.03;;;25.60;90.90;;;;;;5112503;28;20208;-70
2023/08/25 08:59:59;;;;;;;2.40;2.20;;;25.60;90.70;;;;;;5112982;28;20760;-70
2023/08/25 09:02:28;;;;;;;2.10;2.00;;;25.60;90.60;;;;;;5112939;28;20207;-70
2023/08/25 09:04:58;;;;;;;2.67;2.47;;;25.70;90.90;;;;;;5112984;28;20381;-70
2023/08/25 09:07:30;;;;;;;2.60;2.30;;;25.80;90.70;;;;;;5112590;28;20447;-71
2023/08/25 09:09:58;;;;;;;5.37;2.80;;;25.80;90.60;;;;;;5112191;28;20228;-70
2023/08/25 09:12:26;;;;;;;3.77;2.80;;;25.90;91.20;;;;;;5112758;28;20188;-70
2023/08/25 09:14:53;;;;;;;3.83;2.63;;;25.80;90.80;;;;;;5112856;28;20213;-70
2023/08/25 09:17:21;;;;;;;3.87;2.50;;;25.80;90.90;;;;;;5112299;28;20215;-70
2023/08/25 09:19:49;;;;;;;4.17;2.60;;;25.90;91.00;;;;;;5112803;28;20243;-70
2023/08/25 09:22:19;;;;;;;2.53;2.33;;;25.90;90.90;;;;;;5112545;28;20319;-70
2023/08/25 09:24:47;;;;;;;3.93;2.93;;;26.00;91.00;;;;;;5113304;28;20215;-70
2023/08/25 09:27:24;;;;;;;4.40;2.93;;;26.00;91.10;;;;;;5111977;28;20689;-70
2023/08/25 09:29:59;;;;;;;3.90;2.60;;;26.10;91.10;;;;;;5114470;28;20207;-70
2023/08/25 09:32:28;;;;;;;3.20;2.90;;;26.20;91.20;;;;;;5113272;28;20242;-71
2023/08/25 09:34:55;;;;;;;3.80;2.93;;;26.20;91.10;;;;;;5112425;28;20576;-69
2023/08/25 09:37:22;;;;;;;4.33;2.87;;;26.30;91.00;;;;;;5112406;28;20199;-69
2023/08/25 09:39:51;;;;;;;4.10;2.87;;;26.40;91.00;;;;;;5113138;28;20620;-70
2023/08/25 09:42:20;;;;;;;3.80;3.00;;;26.40;91.10;;;;;;5113017;28;20218;-71
2023/08/25 09:44:47;;;;;;;3.23;2.80;;;26.30;90.70;;;;;;5112698;28;20251;-70
2023/08/25 09:47:16;;;;;;;3.77;2.50;;;26.20;90.50;;;;;;5112412;28;20594;-70
2023/08/25 09:49:46;;;;;;;3.17;2.87;;;26.20;90.90;;;;;;5112228;28;20210;-70
2023/08/25 09:52:16;;;;;;;2.87;2.57;;;26.00;90.90;;;;;;5113035;28;20687;-69
2023/08/25 09:54:44;;;;;;;3.00;2.70;;;26.00;90.10;;;;;;5092533;28;20206;-71
2023/08/25 09:57:12;;;;;;;5.40;2.70;;;26.00;90.30;;;;;;5112162;28;20656;-70
2023/08/25 09:59:39;;;;;;;4.33;2.77;;;25.90;90.20;;;;;;5112443;28;20319;-70
2023/08/25 10:02:06;;;;;;;2.80;2.50;;;26.00;90.40;;;;;;5112220;28;20241;-70
2023/08/25 10:04:33;;;;;;;4.77;3.30;;;26.00;90.40;;;;;;5110743;28;20207;-70
2023/08/25 10:07:01;;;;;;;3.77;2.73;;;26.10;90.40;;;;;;5112130;28;20308;-70
2023/08/25 10:09:28;;;;;;;3.83;3.13;;;26.20;90.10;;;;;;5112007;28;20200;-69
2023/08/25 10:11:57;;;;;;;2.97;2.60;;;26.10;90.50;;;;;;5112132;28;20259;-69
2023/08/25 10:14:27;;;;;;;3.70;2.90;;;26.10;90.30;;;;;;5112007;28;20234;-69
2023/08/25 10:16:54;;;;;;;3.20;2.70;;;26.10;90.20;;;;;;5112305;28;20298;-70
2023/08/25 10:19:24;;;;;;;4.60;3.23;;;26.20;90.00;;;;;;5112127;28;20210;-70
2023/08/25 10:21:52;;;;;;;4.37;2.43;;;26.20;89.80;;;;;;5111425;28;20192;-69
2023/08/25 10:24:20;;;;;;;4.07;2.73;;;26.40;89.70;;;;;;5111824;28;20221;-69
2023/08/25 10:26:48;;;;;;;3.20;2.80;;;26.40;89.70;;;;;;5111622;28;20206;-69
2023/08/25 10:29:18;;;;;;;3.07;2.67;;;26.50;89.20;;;;;;5112040;28;20211;-69
2023/08/25 10:31:51;;;;;;;4.03;2.83;;;26.60;89.60;;;;;;5111729;28;20595;-70
2023/08/25 10:34:32;;;;;;;3.27;2.70;;;26.60;88.90;;;;;;5112053;28;20207;-69
2023/08/25 10:37:10;;;;;;;3.20;2.90;;;26.70;88.60;;;;;;5111646;28;20227;-69
2023/08/25 10:39:57;;;;;;;2.87;2.67;;;26.80;88.50;;;;;;5113398;28;20232;-70
2023/08/25 10:42:26;;;;;;;2.97;2.70;;;26.90;87.60;;;;;;5112537;28;20184;-70
2023/08/25 10:44:55;;;;;;;2.80;2.60;;;27.00;87.50;;;;;;5091134;28;20657;-70
2023/08/25 10:47:24;;;;;;;2.80;2.60;;;27.10;87.90;;;;;;5092955;28;20217;-69
2023/08/25 10:49:54;;;;;;;3.53;3.10;;;27.20;87.60;;;;;;5095209;28;20265;-70
2023/08/25 10:52:21;;;;;;;3.50;3.20;;;27.20;87.00;;;;;;5094915;28;20231;-71
2023/08/25 10:54:51;;;;;;;3.30;2.60;;;27.30;86.20;;;;;;5094560;28;20297;-70
2023/08/25 10:57:39;;;;;;;3.70;3.00;;;27.30;86.30;;;;;;5095204;28;20300;-69
2023/08/25 11:00:33;;;;;;;3.50;3.20;;;27.40;85.70;;;;;;5096812;28;20677;-69
2023/08/25 11:03:02;;;;;;;3.17;2.87;;;27.50;84.70;;;;;;5105841;22;20225;-69
2023/08/25 11:05:40;;;;;;;3.43;2.90;;;27.60;85.50;;;;;;5074759;28;20196;-71
2023/08/25 11:08:24;;;;;;;3.83;3.40;;;27.70;84.70;;;;;;5074490;28;20708;-69
2023/08/25 11:11:10;;;;;;;4.13;3.07;;;27.80;84.30;;;;;;5074609;28;20271;-71
2023/08/25 11:13:39;;;;;;;4.30;2.90;;;27.90;84.40;;;;;;5074375;28;20189;-70
2023/08/25 11:16:08;;;;;;;3.57;3.27;;;28.00;84.30;;;;;;5073808;28;20206;-69
2023/08/25 11:18:36;;;;;;;3.60;2.60;;;28.00;84.70;;;;;;5073963;28;20715;-70
2023/08/25 11:21:04;;;;;;;3.03;2.80;;;28.10;84.50;;;;;;5074294;28;20622;-70
2023/08/25 11:23:38;;;;;;;3.50;3.20;;;28.10;84.10;;;;;;5074630;28;20306;-69
2023/08/25 11:26:05;;;;;;;3.10;2.80;;;28.10;83.90;;;;;;5079026;28;20208;-70
2023/08/25 11:28:32;;;;;;;3.20;2.90;;;28.20;84.10;;;;;;5074156;28;20298;-69
2023/08/25 11:31:00;;;;;;;4.07;3.17;;;28.30;83.90;;;;;;5073944;28;20318;-70
2023/08/25 11:33:27;;;;;;;2.70;2.50;;;28.30;83.70;;;;;;5074528;28;20248;-69
2023/08/25 11:35:56;;;;;;;3.00;2.70;;;28.30;80.50;;;;;;5074127;28;20264;-71
2023/08/25 11:38:23;;;;;;;3.47;2.57;;;28.20;81.10;;;;;;5073427;28;20461;-70
2023/08/25 11:40:54;;;;;;;3.00;2.80;;;28.20;78.70;;;;;;5073884;28;20318;-70
2023/08/25 11:43:21;;;;;;;5.77;3.00;;;28.20;77.70;;;;;;5073777;28;20253;-70
2023/08/25 11:45:49;;;;;;;5.27;2.70;;;28.10;77.20;;;;;;5073663;28;20208;-70
2023/08/25 11:48:16;;;;;;;3.17;2.33;;;28.00;76.70;;;;;;5073074;28;20204;-70
2023/08/25 11:50:42;;;;;;;3.53;2.80;;;28.00;76.40;;;;;;5073669;28;20582;-70
2023/08/25 11:53:11;;;;;;;3.00;2.60;;;28.00;76.10;;;;;;5073886;28;20259;-68
2023/08/25 11:55:38;;;;;;;2.97;2.67;;;28.00;76.10;;;;;;5073501;28;20218;-70
2023/08/25 11:58:10;;;;;;;3.23;2.93;;;28.00;76.60;;;;;;5072890;28;20260;-70
2023/08/25 12:00:38;;;;;;;3.17;2.53;;;28.10;76.00;;;;;;5073982;28;20227;-69
2023/08/25 12:03:05;;;;;;;4.40;2.80;;;28.00;76.10;;;;;;5074025;28;20240;-70
2023/08/25 12:05:35;;;;;;;2.83;2.40;;;28.00;75.80;;;;;;5074032;28;20207;-69
2023/08/25 12:08:02;;;;;;;4.40;3.13;;;28.10;76.40;;;;;;5073895;28;20223;-69
2023/08/25 12:10:34;;;;;;;3.20;2.73;;;28.30;76.60;;;;;;5073794;28;20232;-70
2023/08/25 12:13:02;;;;;;;5.67;3.03;;;28.30;75.60;;;;;;5074326;28;20231;-70
2023/08/25 12:15:39;;;;;;;4.00;2.50;;;28.40;74.90;;;;;;5073298;28;20293;-69
2023/08/25 12:18:06;;;;;;;3.50;2.83;;;28.30;73.30;;;;;;5074455;28;20212;-69
2023/08/25 12:20:33;;;;;;;3.00;2.70;;;28.30;74.10;;;;;;5075120;28;20208;-70
2023/08/25 12:23:01;;;;;;;3.60;2.70;;;28.40;74.30;;;;;;5075051;28;20311;-69
2023/08/25 12:25:31;;;;;;;3.00;2.70;;;28.40;73.90;;;;;;5074571;28;20212;-69
2023/08/25 12:27:59;;;;;;;3.07;2.73;;;28.30;73.80;;;;;;5073586;28;20242;-68
2023/08/25 12:30:28;;;;;;;2.97;2.60;;;28.30;73.90;;;;;;5071664;28;20215;-70
2023/08/25 12:32:55;;;;;;;2.90;2.60;;;28.20;74.30;;;;;;5072682;28;20281;-69
2023/08/25 12:35:22;;;;;;;3.53;3.00;;;28.30;74.50;;;;;;5073950;28;20212;-69
2023/08/25 12:37:49;;;;;;;3.53;2.70;;;28.30;74.20;;;;;;5072887;28;20203;-70
2023/08/25 12:40:20;;;;;;;6.23;3.23;;;28.30;73.90;;;;;;5072425;28;20707;-69
2023/08/25 12:42:51;;;;;;;4.47;2.80;;;28.30;73.80;;;;;;5072752;28;20185;-69
2023/08/25 12:45:18;;;;;;;3.70;3.20;;;28.40;73.90;;;;;;5072259;28;20797;-70
2023/08/25 12:47:45;;;;;;;3.20;2.93;;;28.40;74.50;;;;;;5072158;28;20681;-70
2023/08/25 12:50:12;;;;;;;4.47;2.83;;;28.60;74.70;;;;;;5072395;28;20258;-70
2023/08/25 12:52:39;;;;;;;7.10;3.10;;;28.70;75.10;;;;;;5072576;28;20265;-69